Time;durP1;ratioP1;P1;durP2;ratioP2;P2;SDS_P1;SDS_P2;PMS_P1;PMS_P2;Temp;Humidity;BMP_temperature;BMP_pressure;BME280_temperature;BME280_humidity;BME280_pressure;Samples;Min_cycle;Max_cycle;Signal;HPM_P1;HPM_P2
2022/06/28 00:00:37;;;;;;;13.60;10.50;;;15.30;90.80;;;;;;5132988;27;20032;-42
2022/06/28 00:03:07;;;;;;;14.85;10.20;;;15.30;90.80;;;;;;5108982;27;20457;-44
2022/06/28 00:05:33;;;;;;;;;;;15.30;90.80;;;;;;5132889;27;20522;-46
2022/06/28 00:08:01;;;;;;;11.45;10.35;;;15.20;90.80;;;;;;5129653;27;19985;-42
2022/06/28 00:10:26;;;;;;;12.20;10.57;;;15.20;90.80;;;;;;5114377;27;20034;-41
2022/06/28 00:12:52;;;;;;;12.73;11.50;;;15.20;90.90;;;;;;5116964;27;20023;-44
2022/06/28 00:18:04;;;;;;;19.65;11.25;;;15.30;91.00;;;;;;5111682;27;20108;-42
2022/06/28 00:20:30;;;;;;;16.67;13.18;;;15.30;91.10;;;;;;5093422;28;20042;-43
2022/06/28 00:22:56;;;;;;;12.80;11.15;;;15.30;91.10;;;;;;5111667;27;20036;-43
2022/06/28 00:25:21;;;;;;;13.70;12.30;;;15.40;91.20;;;;;;5111957;28;20027;-44
2022/06/28 00:27:49;;;;;;;14.70;11.77;;;15.40;91.10;;;;;;5122723;27;20030;-41
2022/06/28 00:30:17;;;;;;;13.13;11.93;;;15.30;91.10;;;;;;5132384;27;20047;-41
2022/06/28 00:32:43;;;;;;;12.35;10.52;;;15.30;91.00;;;;;;5130801;27;20020;-42
2022/06/28 00:35:12;;;;;;;12.57;11.27;;;15.30;91.00;;;;;;5132833;27;20023;-40
2022/06/28 00:37:40;;;;;;;12.50;10.38;;;15.20;91.00;;;;;;5131086;27;20050;-41
2022/06/28 00:40:06;;;;;;;17.05;12.05;;;15.10;90.90;;;;;;5109134;27;20433;-41
2022/06/28 00:42:32;;;;;;;15.88;12.10;;;15.10;91.00;;;;;;5130365;27;20493;-42
2022/06/28 00:44:58;;;;;;;13.70;12.30;;;15.10;91.00;;;;;;5132217;27;20027;-41
2022/06/28 00:47:28;;;;;;;17.88;12.32;;;15.10;91.10;;;;;;5113594;27;20557;-42
2022/06/28 00:49:55;;;;;;;;;;;15.00;91.00;;;;;;5112002;28;20114;-40
2022/06/28 00:52:21;;;;;;;12.27;10.93;;;15.00;91.10;;;;;;5127241;27;19926;-42
2022/06/28 00:54:46;;;;;;;12.40;11.30;;;15.00;91.10;;;;;;5126528;27;20476;-42
2022/06/28 00:57:12;;;;;;;13.10;11.80;;;15.10;91.20;;;;;;5118244;27;20019;-40
2022/06/28 00:59:38;;;;;;;15.40;12.88;;;15.00;91.20;;;;;;5099987;27;20023;-41
2022/06/28 01:02:03;;;;;;;15.02;13.15;;;15.00;91.20;;;;;;5126420;27;20027;-42
2022/06/28 01:04:29;;;;;;;18.50;14.25;;;15.10;91.20;;;;;;5130776;27;20038;-42
2022/06/28 01:06:55;;;;;;;17.63;15.88;;;15.10;91.20;;;;;;5130168;27;20023;-43
2022/06/28 01:09:21;;;;;;;18.42;16.75;;;15.10;91.20;;;;;;5121157;27;20506;-41
2022/06/28 01:11:47;;;;;;;19.63;17.65;;;15.10;91.20;;;;;;5125730;27;20019;-41
2022/06/28 01:14:13;;;;;;;18.75;16.83;;;15.00;91.20;;;;;;5131306;27;20023;-40
2022/06/28 01:16:41;;;;;;;18.35;16.45;;;15.00;91.10;;;;;;5129186;27;20031;-42
2022/06/28 01:19:09;;;;;;;19.52;17.52;;;15.00;91.10;;;;;;5113133;27;20474;-41
2022/06/28 01:21:37;;;;;;;17.23;15.70;;;14.90;91.10;;;;;;5098132;28;20448;-40
2022/06/28 01:24:04;;;;;;;18.92;16.92;;;14.90;91.00;;;;;;5126764;27;20042;-40
2022/06/28 01:26:30;;;;;;;18.52;16.73;;;14.90;91.00;;;;;;5100400;28;20420;-41
2022/06/28 01:28:56;;;;;;;19.45;17.45;;;14.90;91.10;;;;;;5119798;27;20034;-41
2022/06/28 01:31:23;;;;;;;20.85;18.67;;;14.80;91.00;;;;;;5104776;27;20027;-41
2022/06/28 01:33:50;;;;;;;22.05;19.75;;;14.70;91.00;;;;;;5131442;27;20031;-41
2022/06/28 01:36:16;;;;;;;21.05;18.80;;;14.70;91.00;;;;;;5121270;27;20069;-42
2022/06/28 01:38:42;;;;;;;21.85;19.75;;;14.70;91.10;;;;;;5109803;27;20475;-40
2022/06/28 01:41:09;;;;;;;21.75;18.65;;;14.70;91.10;;;;;;5110696;27;20024;-45
2022/06/28 01:43:39;;;;;;;19.23;17.48;;;14.70;91.10;;;;;;5107826;28;20023;-40
2022/06/28 01:46:06;;;;;;;;;;;14.70;91.10;;;;;;5110799;28;20032;-41
2022/06/28 01:48:32;;;;;;;19.88;16.25;;;14.60;91.10;;;;;;5109915;27;19916;-43
2022/06/28 01:50:59;;;;;;;18.00;16.23;;;14.60;91.10;;;;;;5110209;28;20098;-40
2022/06/28 01:53:27;;;;;;;16.30;14.65;;;14.60;91.00;;;;;;5127809;27;20041;-41
2022/06/28 01:55:53;;;;;;;17.48;15.48;;;14.60;91.00;;;;;;5110177;28;20058;-40
2022/06/28 01:58:18;;;;;;;15.98;14.13;;;14.60;91.10;;;;;;5113734;27;20031;-41
2022/06/28 02:00:44;;;;;;;19.58;15.20;;;14.60;91.00;;;;;;5121484;27;20341;-43
2022/06/28 02:03:32;;;;;;;16.13;13.48;;;14.60;90.90;;;;;;5098697;28;20050;-42
2022/06/28 02:05:57;;;;;;;16.50;14.85;;;14.50;90.90;;;;;;5114858;27;20096;-41
2022/06/28 02:08:22;;;;;;;16.70;14.88;;;14.50;90.80;;;;;;5130514;27;20019;-41
2022/06/28 02:10:48;;;;;;;17.58;14.30;;;14.40;90.80;;;;;;5118046;27;20151;-40
2022/06/28 02:13:13;;;;;;;17.45;15.50;;;14.40;90.70;;;;;;5109349;28;20023;-40
2022/06/28 02:15:39;;;;;;;15.38;13.77;;;14.40;90.80;;;;;;5120192;27;20030;-42
2022/06/28 02:18:05;;;;;;;15.90;14.25;;;14.40;90.70;;;;;;5130454;27;20058;-41
2022/06/28 02:20:32;;;;;;;16.23;14.60;;;14.30;90.70;;;;;;5110282;27;20063;-41
2022/06/28 02:22:58;;;;;;;22.42;15.63;;;14.30;90.70;;;;;;5124717;27;20027;-41
2022/06/28 02:25:24;;;;;;;14.65;13.15;;;14.30;90.70;;;;;;5128814;27;20026;-40
2022/06/28 02:27:49;;;;;;;18.00;15.32;;;14.20;90.60;;;;;;5130327;27;20031;-40
2022/06/28 02:30:15;;;;;;;18.20;15.27;;;14.20;90.70;;;;;;5113249;27;20147;-40
2022/06/28 02:32:41;;;;;;;15.18;13.63;;;14.20;90.70;;;;;;5121262;27;20037;-40
2022/06/28 02:40:35;;;;;;;15.85;14.25;;;14.10;90.60;;;;;;5128781;27;20026;-40
2022/06/28 02:43:01;;;;;;;19.48;15.07;;;14.10;90.60;;;;;;5129800;27;20041;-41
2022/06/28 02:45:30;;;;;;;18.80;15.07;;;14.00;90.60;;;;;;5112812;27;20028;-42
2022/06/28 02:47:56;;;;;;;18.73;15.18;;;14.00;90.60;;;;;;5109535;28;20019;-40
2022/06/28 02:50:22;;;;;;;19.08;15.73;;;13.90;90.60;;;;;;5090910;28;20114;-42
2022/06/28 02:52:49;;;;;;;16.25;14.45;;;13.90;90.60;;;;;;5121603;27;20019;-41
2022/06/28 02:55:17;;;;;;;17.13;15.15;;;13.90;90.60;;;;;;5112139;28;20044;-40
2022/06/28 02:57:43;;;;;;;17.20;15.35;;;13.90;90.60;;;;;;5108793;28;20388;-44
2022/06/28 03:00:15;;;;;;;16.77;15.10;;;13.90;90.50;;;;;;5113518;28;20055;-40
2022/06/28 03:02:42;;;;;;;20.25;16.23;;;13.90;90.60;;;;;;5112596;28;20525;-41
2022/06/28 03:05:10;;;;;;;16.02;14.32;;;13.80;90.60;;;;;;5108777;28;20107;-40
2022/06/28 03:07:36;;;;;;;16.92;15.05;;;13.80;90.60;;;;;;5092063;28;20543;-40
2022/06/28 03:10:05;;;;;;;17.52;15.70;;;13.80;90.60;;;;;;5109174;28;20401;-40
2022/06/28 03:12:31;;;;;;;17.48;15.75;;;13.80;90.50;;;;;;5096316;28;20432;-41
2022/06/28 03:14:59;;;;;;;19.15;16.17;;;13.70;90.50;;;;;;5109139;28;20046;-40
2022/06/28 03:17:25;;;;;;;18.15;14.50;;;13.70;90.60;;;;;;5110476;28;20456;-40
2022/06/28 03:19:51;;;;;;;17.35;14.95;;;13.70;90.60;;;;;;5128408;28;20046;-40
2022/06/28 03:22:17;;;;;;;17.05;15.23;;;13.70;90.60;;;;;;5127655;28;20023;-40
2022/06/28 03:24:43;;;;;;;16.88;15.15;;;13.70;90.70;;;;;;5109413;28;20039;-40
2022/06/28 03:27:11;;;;;;;19.17;15.63;;;13.70;90.70;;;;;;5108940;28;20024;-41
2022/06/28 03:29:36;;;;;;;19.15;16.45;;;13.70;90.70;;;;;;5126726;28;20754;-41
2022/06/28 03:32:02;;;;;;;18.00;16.17;;;13.70;90.70;;;;;;5111150;28;20061;-41
2022/06/28 03:34:28;;;;;;;16.98;14.57;;;13.70;90.70;;;;;;5092935;28;20078;-41
2022/06/28 03:36:55;;;;;;;17.65;15.38;;;13.60;90.70;;;;;;5121376;28;20042;-40
2022/06/28 03:39:21;;;;;;;16.25;14.65;;;13.60;90.70;;;;;;5112750;28;20035;-40
2022/06/28 03:41:46;;;;;;;17.38;15.57;;;13.60;90.70;;;;;;5129235;28;20027;-41
2022/06/28 03:44:12;;;;;;;18.63;15.65;;;13.60;90.70;;;;;;5095671;28;20027;-40
2022/06/28 03:46:40;;;;;;;18.55;16.35;;;13.60;90.70;;;;;;5116776;28;20444;-41
2022/06/28 03:49:08;;;;;;;16.33;14.63;;;13.60;90.70;;;;;;5117881;28;20031;-41
2022/06/28 03:51:33;;;;;;;15.73;14.13;;;13.60;90.70;;;;;;5119801;28;20028;-42
2022/06/28 03:53:59;;;;;;;20.02;16.08;;;13.60;90.70;;;;;;5100251;28;20057;-41
2022/06/28 03:56:26;;;;;;;18.00;16.23;;;13.70;90.70;;;;;;5101368;28;20085;-41
2022/06/28 03:58:51;;;;;;;17.52;15.70;;;13.70;90.70;;;;;;5113704;28;20114;-40
2022/06/28 04:01:17;;;;;;;17.65;15.90;;;13.70;90.80;;;;;;5119501;28;20050;-41
2022/06/28 04:03:43;;;;;;;17.75;16.05;;;13.70;90.80;;;;;;5062053;27;20050;-41
2022/06/28 04:06:08;;;;;;;19.25;17.30;;;13.70;90.80;;;;;;5117225;27;20026;-40
2022/06/28 04:08:34;;;;;;;18.85;17.02;;;13.70;90.80;;;;;;5116691;27;20033;-43
2022/06/28 04:11:14;;;;;;;19.67;16.83;;;13.80;90.90;;;;;;5120382;27;20102;-42
2022/06/28 04:13:42;;;;;;;19.10;17.17;;;13.80;90.90;;;;;;5121691;27;20658;-41
2022/06/28 04:16:08;;;;;;;20.48;18.35;;;13.80;90.80;;;;;;5115587;27;20032;-41
2022/06/28 04:18:34;;;;;;;21.02;18.83;;;13.80;90.80;;;;;;5112317;28;20057;-41
2022/06/28 04:21:00;;;;;;;19.92;17.88;;;13.80;90.80;;;;;;5115653;27;20038;-40
2022/06/28 04:23:26;;;;;;;23.80;19.88;;;13.90;90.90;;;;;;5132349;27;20424;-40
2022/06/28 04:25:51;;;;;;;20.05;17.52;;;13.90;90.90;;;;;;5111384;27;20114;-40
2022/06/28 04:28:17;;;;;;;20.15;18.15;;;13.80;90.80;;;;;;5087382;27;20102;-40
2022/06/28 04:30:43;;;;;;;20.80;18.60;;;13.90;91.00;;;;;;5101715;27;20458;-40
2022/06/28 04:33:11;;;;;;;20.52;18.30;;;13.90;91.00;;;;;;5121303;27;20475;-40
2022/06/28 04:35:39;;;;;;;21.60;18.20;;;13.90;91.00;;;;;;5122167;27;20137;-40
2022/06/28 04:38:04;;;;;;;20.45;18.33;;;14.00;91.10;;;;;;5103425;27;20027;-43
2022/06/28 04:40:30;;;;;;;21.45;18.10;;;14.00;91.10;;;;;;5120607;27;20351;-40
2022/06/28 04:42:55;;;;;;;19.67;17.63;;;14.10;91.00;;;;;;5119891;27;20387;-40
2022/06/28 04:45:21;;;;;;;20.77;18.40;;;14.10;90.80;;;;;;5103677;27;20038;-40
2022/06/28 04:47:47;;;;;;;19.42;17.33;;;14.10;90.80;;;;;;5098045;27;20044;-41
2022/06/28 04:50:13;;;;;;;24.05;17.55;;;14.10;90.90;;;;;;5120203;27;20049;-40
2022/06/28 04:52:39;;;;;;;20.85;18.67;;;14.20;90.80;;;;;;5104133;27;20039;-41
2022/06/28 04:55:08;;;;;;;19.90;18.00;;;14.20;90.80;;;;;;5092194;27;20048;-40
2022/06/28 04:57:35;;;;;;;21.33;19.13;;;14.20;90.80;;;;;;5101963;27;20069;-42
2022/06/28 05:00:01;;;;;;;20.83;18.83;;;14.30;90.90;;;;;;5131007;27;20035;-40
2022/06/28 05:02:26;;;;;;;21.13;18.92;;;14.30;90.90;;;;;;5108874;27;20027;-40
2022/06/28 05:04:52;;;;;;;20.40;18.25;;;14.30;90.80;;;;;;5097185;27;20030;-40
2022/06/28 05:07:17;;;;;;;21.65;19.35;;;14.40;90.90;;;;;;5110806;27;20050;-42
2022/06/28 05:09:46;;;;;;;21.90;19.58;;;14.40;90.80;;;;;;5116165;27;20020;-41
2022/06/28 05:12:11;;;;;;;20.27;18.27;;;14.50;91.00;;;;;;5128001;27;20106;-41
2022/06/28 05:14:37;;;;;;;19.90;17.90;;;14.50;90.70;;;;;;5111034;27;20103;-40
2022/06/28 05:17:03;;;;;;;19.80;16.05;;;14.50;90.50;;;;;;5131632;27;20066;-41
2022/06/28 05:19:33;;;;;;;19.58;17.48;;;14.40;90.40;;;;;;5129731;27;20038;-40
2022/06/28 05:21:59;;;;;;;18.08;16.25;;;14.50;90.50;;;;;;5118241;27;20020;-41
2022/06/28 05:24:25;;;;;;;18.23;16.35;;;14.60;90.70;;;;;;5120871;27;20052;-40
2022/06/28 05:26:51;;;;;;;18.98;16.90;;;14.60;90.30;;;;;;5118229;27;20495;-42
2022/06/28 05:29:17;;;;;;;18.42;16.63;;;14.60;90.20;;;;;;5093184;27;20068;-40
2022/06/28 05:31:42;;;;;;;17.80;16.05;;;14.70;90.10;;;;;;5118839;27;20077;-41
2022/06/28 05:34:08;;;;;;;16.75;15.10;;;14.70;90.10;;;;;;5116249;27;20427;-41
2022/06/28 05:36:34;;;;;;;17.52;15.80;;;14.90;89.90;;;;;;5115920;27;20380;-41
2022/06/28 05:39:00;;;;;;;17.55;14.57;;;14.90;89.80;;;;;;5117456;27;20024;-42
2022/06/28 05:41:25;;;;;;;15.15;13.82;;;15.00;89.60;;;;;;5117075;27;20054;-40
2022/06/28 05:43:51;;;;;;;14.77;12.52;;;15.20;89.10;;;;;;5116053;27;20356;-40
2022/06/28 05:46:17;;;;;;;15.68;14.02;;;15.40;88.90;;;;;;5117592;27;20376;-40
2022/06/28 05:48:42;;;;;;;12.70;11.40;;;15.60;88.80;;;;;;5101485;27;20035;-40
2022/06/28 05:51:08;;;;;;;11.70;10.38;;;15.90;88.00;;;;;;5097886;28;20035;-40
2022/06/28 05:53:36;;;;;;;11.27;10.27;;;16.40;87.30;;;;;;5110557;27;20328;-40
2022/06/28 05:56:03;;;;;;;13.13;10.13;;;16.60;86.00;;;;;;5109516;28;20158;-40
2022/06/28 05:58:30;;;;;;;9.50;8.57;;;16.80;85.60;;;;;;5112377;27;20040;-40
2022/06/28 06:00:57;;;;;;;10.48;8.93;;;17.10;84.80;;;;;;5110255;28;20161;-40
2022/06/28 06:03:23;;;;;;;11.80;7.82;;;17.40;83.60;;;;;;5115260;27;20470;-40
2022/06/28 06:05:50;;;;;;;9.85;7.88;;;17.40;82.80;;;;;;5114433;27;20036;-44
2022/06/28 06:08:16;;;;;;;9.38;7.30;;;17.60;82.50;;;;;;5100404;27;20163;-45
2022/06/28 06:10:41;;;;;;;8.75;6.35;;;17.70;82.10;;;;;;5117473;27;20031;-42
2022/06/28 06:13:07;;;;;;;9.98;6.28;;;17.90;81.80;;;;;;5119533;27;20028;-42
2022/06/28 06:15:35;;;;;;;13.52;7.03;;;18.10;81.20;;;;;;5116734;27;20136;-44
2022/06/28 06:18:05;;;;;;;8.23;5.43;;;18.40;80.50;;;;;;5128889;27;20062;-42
2022/06/28 06:20:31;;;;;;;12.35;5.82;;;18.60;79.90;;;;;;5110086;27;20110;-42
2022/06/28 06:22:59;;;;;;;8.98;5.38;;;18.70;79.40;;;;;;5125992;27;20107;-44
2022/06/28 06:25:25;;;;;;;6.85;4.72;;;18.90;78.40;;;;;;5117760;27;20027;-42
2022/06/28 06:27:51;;;;;;;10.13;4.97;;;19.00;78.90;;;;;;5127322;27;20328;-43
2022/06/28 06:30:16;;;;;;;8.85;5.53;;;19.00;78.00;;;;;;5113317;27;20051;-42
2022/06/28 06:32:42;;;;;;;6.07;4.10;;;19.10;78.60;;;;;;5112038;27;20059;-42
2022/06/28 06:35:09;;;;;;;7.53;4.50;;;19.00;79.40;;;;;;5108150;28;20044;-43
2022/06/28 06:37:35;;;;;;;11.20;4.18;;;18.90;79.30;;;;;;5111867;27;20035;-45
2022/06/28 06:40:01;;;;;;;8.88;4.45;;;19.00;78.60;;;;;;5116639;27;20031;-43
2022/06/28 06:42:26;;;;;;;13.15;4.32;;;18.80;78.40;;;;;;5114137;27;20038;-42
2022/06/28 06:44:52;;;;;;;10.13;4.55;;;18.80;78.60;;;;;;5128164;27;20473;-43
2022/06/28 06:47:18;;;;;;;12.70;5.40;;;18.70;79.40;;;;;;5115084;27;20035;-43
2022/06/28 06:49:43;;;;;;;13.57;5.00;;;18.60;79.50;;;;;;5101512;27;20027;-43
2022/06/28 06:52:09;;;;;;;8.98;5.07;;;18.50;79.20;;;;;;5111048;27;20103;-42
2022/06/28 06:54:35;;;;;;;6.70;3.83;;;18.50;79.60;;;;;;5123837;27;20047;-42
2022/06/28 06:57:03;;;;;;;9.80;3.92;;;18.60;79.60;;;;;;5131332;27;20027;-43
2022/06/28 06:59:31;;;;;;;12.73;4.45;;;18.70;79.90;;;;;;5127369;27;20036;-43
2022/06/28 07:01:57;;;;;;;8.90;4.15;;;18.80;78.90;;;;;;5120126;27;20028;-42
2022/06/28 07:04:22;;;;;;;7.00;4.03;;;18.80;77.50;;;;;;5132697;27;20502;-44
2022/06/28 07:06:48;;;;;;;10.38;4.43;;;18.80;77.80;;;;;;5117751;28;20410;-45
2022/06/28 07:09:14;;;;;;;7.72;4.20;;;18.90;78.60;;;;;;5116130;28;20038;-42
2022/06/28 07:11:39;;;;;;;9.73;4.28;;;18.90;76.90;;;;;;5117356;28;20038;-45
2022/06/28 07:14:08;;;;;;;9.98;4.97;;;18.90;78.00;;;;;;5119170;28;20024;-43
2022/06/28 07:16:33;;;;;;;8.25;3.20;;;19.20;77.70;;;;;;5108700;28;20506;-43
2022/06/28 07:18:59;;;;;;;9.82;3.53;;;19.40;77.20;;;;;;5124302;28;20058;-43
2022/06/28 07:21:27;;;;;;;9.20;3.08;;;19.70;73.70;;;;;;5123380;28;20058;-49
2022/06/28 07:23:53;;;;;;;8.80;3.15;;;20.00;74.60;;;;;;5105763;28;20038;-44
2022/06/28 07:26:19;;;;;;;7.15;3.22;;;20.50;73.10;;;;;;5115897;28;20031;-43
2022/06/28 07:28:47;;;;;;;8.07;2.55;;;20.90;70.40;;;;;;5093516;28;20078;-48
2022/06/28 07:31:13;;;;;;;8.73;2.65;;;21.50;69.10;;;;;;5093020;28;20023;-43
2022/06/28 07:33:38;;;;;;;5.15;2.17;;;21.90;67.90;;;;;;5110199;28;20027;-45
2022/06/28 07:36:04;;;;;;;6.93;1.90;;;22.10;65.50;;;;;;5108421;28;20023;-44
2022/06/28 07:38:30;;;;;;;5.78;1.85;;;22.40;64.20;;;;;;5108000;27;20057;-43
2022/06/28 07:40:57;;;;;;;5.70;2.00;;;22.50;65.20;;;;;;5129637;27;20022;-43
2022/06/28 07:43:24;;;;;;;5.93;2.42;;;22.90;61.60;;;;;;5095735;28;20036;-44
2022/06/28 07:45:53;;;;;;;3.63;1.48;;;22.40;61.10;;;;;;5122565;27;20509;-44
2022/06/28 07:48:20;;;;;;;5.28;2.30;;;23.20;60.40;;;;;;5112111;27;20042;-44
2022/06/28 07:53:33;;;;;;;6.30;2.30;;;23.90;57.60;;;;;;5121383;27;20042;-48
2022/06/28 07:55:58;;;;;;;6.20;2.20;;;24.00;58.20;;;;;;5120046;27;20781;-44
2022/06/28 07:58:24;;;;;;;6.05;2.28;;;24.40;58.40;;;;;;5130774;27;20035;-44
2022/06/28 08:00:50;;;;;;;5.15;2.25;;;24.50;55.70;;;;;;5123753;27;20043;-44
2022/06/28 08:03:16;;;;;;;7.45;2.70;;;24.50;56.10;;;;;;5094638;27;20039;-45
2022/06/28 08:05:44;;;;;;;3.30;1.83;;;24.20;56.70;;;;;;5108406;27;20064;-47
2022/06/28 08:08:12;;;;;;;8.32;2.42;;;24.30;55.80;;;;;;5126914;27;20888;-44
2022/06/28 08:10:40;;;;;;;4.50;1.80;;;24.30;55.80;;;;;;5097785;27;20385;-46
2022/06/28 08:13:06;;;;;;;6.38;1.52;;;24.40;55.60;;;;;;5119420;27;20047;-43
2022/06/28 08:15:31;;;;;;;4.43;1.60;;;24.30;56.10;;;;;;5113429;27;20371;-45
2022/06/28 08:17:57;;;;;;;6.32;1.90;;;24.60;56.50;;;;;;5103459;27;20039;-45
2022/06/28 08:20:23;;;;;;;5.38;2.38;;;24.90;54.90;;;;;;5113818;27;20034;-46
2022/06/28 08:22:48;;;;;;;5.47;2.28;;;24.50;55.90;;;;;;5103299;28;20452;-45
2022/06/28 08:25:14;;;;;;;4.45;1.67;;;24.40;55.70;;;;;;5107505;27;20057;-44
2022/06/28 08:27:40;;;;;;;6.50;1.70;;;24.70;55.50;;;;;;5126675;27;20031;-45
2022/06/28 08:30:06;;;;;;;7.85;2.65;;;25.10;54.10;;;;;;5107051;28;20325;-44
2022/06/28 08:32:35;;;;;;;6.32;3.03;;;25.30;54.90;;;;;;5093137;27;20085;-44
2022/06/28 08:35:03;;;;;;;7.05;2.10;;;25.70;53.10;;;;;;5117786;27;20158;-47
2022/06/28 08:37:30;;;;;;;4.50;1.30;;;25.90;53.50;;;;;;5097674;27;20032;-47
2022/06/28 08:39:56;;;;;;;4.97;1.33;;;26.10;49.50;;;;;;5110043;28;20551;-45
2022/06/28 08:42:28;;;;;;;5.50;1.40;;;25.80;50.10;;;;;;5116880;27;20592;-45
2022/06/28 08:45:02;;;;;;;4.10;1.63;;;25.90;51.40;;;;;;5113899;27;20637;-45
2022/06/28 08:47:32;;;;;;;5.97;1.65;;;26.00;50.30;;;;;;5107337;27;20027;-44
2022/06/28 08:50:04;;;;;;;2.75;1.05;;;26.10;50.60;;;;;;5120570;27;20038;-45
2022/06/28 08:52:36;;;;;;;4.60;1.17;;;26.60;50.40;;;;;;5104442;28;20032;-45
2022/06/28 08:55:06;;;;;;;3.88;1.20;;;26.00;51.10;;;;;;5091873;28;20087;-44
2022/06/28 08:57:33;;;;;;;4.80;1.35;;;26.00;49.70;;;;;;5077020;28;20111;-45
2022/06/28 08:59:59;;;;;;;5.95;1.25;;;25.90;48.70;;;;;;5075909;28;20056;-46
2022/06/28 09:02:25;;;;;;;3.75;1.23;;;25.90;52.50;;;;;;5107959;28;20034;-45
2022/06/28 09:04:53;;;;;;;4.30;1.00;;;25.90;50.40;;;;;;5105925;28;20034;-45
2022/06/28 09:07:21;;;;;;;4.77;1.43;;;25.90;50.00;;;;;;5091978;28;20020;-44
2022/06/28 09:09:50;;;;;;;6.03;1.42;;;25.30;48.30;;;;;;5089547;28;20085;-45
2022/06/28 09:12:17;;;;;;;3.92;1.65;;;24.80;51.40;;;;;;5109219;27;20089;-46
2022/06/28 09:14:43;;;;;;;2.83;1.00;;;24.90;52.50;;;;;;5099413;27;20042;-44
2022/06/28 09:17:27;;;;;;;3.42;1.20;;;24.60;50.10;;;;;;5093414;28;20024;-47
2022/06/28 09:19:58;;;;;;;5.05;1.38;;;23.90;51.80;;;;;;5089680;28;20054;-45
2022/06/28 09:22:41;;;;;;;2.40;0.80;;;24.20;54.00;;;;;;5074279;28;20030;-45
2022/06/28 09:25:23;;;;;;;3.42;0.93;;;24.60;52.10;;;;;;5098286;28;20046;-45
2022/06/28 09:27:55;;;;;;;4.18;1.48;;;24.20;52.30;;;;;;5089998;28;20035;-48
2022/06/28 09:30:24;;;;;;;3.10;1.00;;;24.10;53.60;;;;;;5084578;28;20081;-48
2022/06/28 09:32:49;;;;;;;3.78;1.42;;;23.90;52.00;;;;;;5096244;28;20052;-45
2022/06/28 09:35:15;;;;;;;2.97;1.08;;;24.20;53.80;;;;;;5096583;28;20197;-46
2022/06/28 09:37:59;;;;;;;3.28;0.73;;;24.50;54.40;;;;;;5099283;28;20032;-45
2022/06/28 09:40:31;;;;;;;3.80;1.20;;;25.10;51.70;;;;;;5091249;28;20463;-47
2022/06/28 09:43:16;;;;;;;2.58;0.90;;;25.30;50.30;;;;;;5071666;28;20043;-44
2022/06/28 09:45:46;;;;;;;4.05;1.05;;;25.60;47.90;;;;;;5089899;28;20031;-44
2022/06/28 09:48:20;;;;;;;8.93;1.50;;;25.70;48.80;;;;;;5098917;28;20337;-44
2022/06/28 09:50:46;;;;;;;3.00;0.60;;;25.80;50.00;;;;;;5096290;28;20037;-45
2022/06/28 09:53:16;;;;;;;3.63;1.00;;;25.30;49.10;;;;;;5092301;28;20404;-44
2022/06/28 09:55:42;;;;;;;4.38;1.50;;;25.20;49.80;;;;;;5090506;27;20050;-45
2022/06/28 09:58:09;;;;;;;3.95;0.90;;;25.70;49.30;;;;;;5142041;27;20023;-44
2022/06/28 10:00:39;;;;;;;3.08;0.82;;;25.40;48.10;;;;;;5125905;27;20462;-46
2022/06/28 10:03:05;;;;;;;2.03;0.63;;;25.60;47.40;;;;;;5124396;27;20033;-45
2022/06/28 10:05:31;;;;;;;3.97;1.15;;;25.30;48.20;;;;;;5101151;27;20024;-46
2022/06/28 10:07:58;;;;;;;6.82;1.15;;;25.40;49.40;;;;;;5124526;27;20042;-44
2022/06/28 10:10:26;;;;;;;4.38;0.77;;;25.40;48.90;;;;;;5139222;27;20018;-44
2022/06/28 10:15:40;;;;;;;4.95;0.88;;;25.90;48.90;;;;;;5135646;27;20037;-46
2022/06/28 10:18:11;;;;;;;5.85;1.00;;;26.30;46.00;;;;;;5126260;27;20101;-47
2022/06/28 10:20:39;;;;;;;4.10;0.82;;;26.30;45.70;;;;;;5125009;27;20085;-45
2022/06/28 10:23:23;;;;;;;3.35;0.85;;;25.80;47.30;;;;;;5131949;27;20095;-46
2022/06/28 10:26:09;;;;;;;5.10;1.00;;;25.60;47.80;;;;;;5136005;27;20034;-45
2022/06/28 10:28:38;;;;;;;4.55;1.25;;;25.80;47.00;;;;;;5135900;27;20049;-48
2022/06/28 10:31:24;;;;;;;2.70;0.70;;;25.90;46.60;;;;;;5136602;27;20343;-45
2022/06/28 10:33:57;;;;;;;4.88;1.45;;;26.10;45.90;;;;;;5110408;27;20038;-46
2022/06/28 10:36:31;;;;;;;3.50;1.08;;;26.30;44.40;;;;;;5134543;27;20039;-48
2022/06/28 10:39:08;;;;;;;5.63;1.25;;;26.00;47.40;;;;;;5137975;27;20519;-46
2022/06/28 10:41:38;;;;;;;4.22;0.90;;;26.30;46.90;;;;;;5129315;27;20081;-45
2022/06/28 10:44:11;;;;;;;3.50;0.70;;;26.10;47.80;;;;;;5103135;27;20046;-45
2022/06/28 10:46:36;;;;;;;3.58;1.38;;;25.60;46.30;;;;;;5090987;28;20057;-45
2022/06/28 10:49:05;;;;;;;2.55;0.77;;;24.60;48.70;;;;;;5122734;27;20614;-45
2022/06/28 10:51:32;;;;;;;4.63;1.17;;;24.40;50.30;;;;;;5128237;27;20047;-48
2022/06/28 10:54:09;;;;;;;3.55;1.08;;;24.20;50.50;;;;;;5125882;27;20071;-46
2022/06/28 10:56:37;;;;;;;2.95;1.00;;;24.40;50.50;;;;;;5113607;27;20472;-47
2022/06/28 10:59:07;;;;;;;3.90;1.35;;;24.80;47.80;;;;;;5094417;28;20027;-46
2022/06/28 11:01:44;;;;;;;2.47;1.10;;;25.10;47.90;;;;;;5123448;27;20070;-45
2022/06/28 11:04:11;;;;;;;4.25;1.02;;;25.60;46.50;;;;;;5117009;28;20110;-47
2022/06/28 11:06:41;;;;;;;3.20;1.02;;;25.60;47.00;;;;;;5123707;28;20036;-45
2022/06/28 11:09:52;;;;;;;2.85;0.77;;;25.60;47.10;;;;;;5111001;28;20023;-46
2022/06/28 11:12:41;;;;;;;4.53;0.95;;;25.70;45.50;;;;;;5130666;27;20042;-46
2022/06/28 11:15:37;;;;;;;3.58;0.82;;;26.30;47.90;;;;;;5131718;27;20108;-46
2022/06/28 11:18:16;;;;;;;2.40;0.73;;;26.40;48.50;;;;;;5131268;27;20019;-47
2022/06/28 11:20:42;;;;;;;3.45;1.15;;;26.90;47.20;;;;;;5133190;27;20039;-45
2022/06/28 11:23:08;;;;;;;4.95;1.10;;;26.90;45.50;;;;;;5129831;27;20026;-47
2022/06/28 11:28:21;;;;;;;7.10;1.63;;;26.60;46.80;;;;;;5129937;27;20339;-45
2022/06/28 11:30:47;;;;;;;2.70;0.93;;;26.60;45.50;;;;;;5114841;27;20023;-45
2022/06/28 11:33:18;;;;;;;2.72;0.80;;;25.70;43.40;;;;;;5132144;27;20020;-47
2022/06/28 11:35:45;;;;;;;2.67;0.90;;;25.30;46.50;;;;;;5103639;27;20034;-44
2022/06/28 11:38:12;;;;;;;3.05;0.70;;;25.50;46.70;;;;;;5123238;27;21054;-48
2022/06/28 11:40:57;;;;;;;2.63;0.75;;;25.40;45.30;;;;;;5107800;27;20026;-44
2022/06/28 11:43:26;;;;;;;4.00;1.10;;;25.40;44.80;;;;;;5128744;27;20114;-46
2022/06/28 11:45:53;;;;;;;2.25;0.60;;;24.90;46.40;;;;;;5128392;27;20023;-47
2022/06/28 11:48:27;;;;;;;4.28;1.00;;;24.50;48.60;;;;;;5119417;27;20023;-46
2022/06/28 11:50:54;;;;;;;3.42;1.13;;;24.50;48.50;;;;;;5116844;27;20016;-45
2022/06/28 11:53:21;;;;;;;2.72;1.00;;;24.30;48.70;;;;;;5125744;27;20650;-45
2022/06/28 11:55:51;;;;;;;4.18;1.30;;;24.50;50.10;;;;;;5127215;27;20047;-47
2022/06/28 11:58:30;;;;;;;4.47;1.05;;;24.60;47.10;;;;;;5102847;27;20046;-45
2022/06/28 12:01:12;;;;;;;;;;;24.10;47.80;;;;;;5126879;27;20034;-45
2022/06/28 12:03:43;;;;;;;3.38;0.73;;;23.60;49.30;;;;;;5144062;27;19915;-46
2022/06/28 12:06:22;;;;;;;5.63;0.82;;;23.30;48.90;;;;;;5128114;27;20027;-45
2022/06/28 12:08:54;;;;;;;3.03;1.00;;;23.00;50.70;;;;;;5119970;27;20404;-43
2022/06/28 12:11:32;;;;;;;4.05;1.10;;;23.20;51.10;;;;;;5130833;27;20115;-45
2022/06/28 12:13:59;;;;;;;3.10;1.10;;;23.80;46.70;;;;;;5131775;27;20405;-45
2022/06/28 12:16:33;;;;;;;4.90;1.50;;;24.10;48.30;;;;;;5115237;27;20451;-47
2022/06/28 12:18:59;;;;;;;3.13;0.65;;;24.30;46.80;;;;;;5130195;27;20039;-45
2022/06/28 12:21:26;;;;;;;3.80;1.00;;;24.20;46.60;;;;;;5133521;27;20321;-45
2022/06/28 12:23:54;;;;;;;4.68;1.02;;;24.20;47.00;;;;;;5127978;27;20028;-45
2022/06/28 12:26:21;;;;;;;4.07;1.10;;;24.40;47.30;;;;;;5125217;27;20046;-46
2022/06/28 12:28:47;;;;;;;6.13;1.73;;;24.70;54.10;;;;;;5125099;27;20029;-45
2022/06/28 12:31:13;;;;;;;6.80;1.60;;;24.80;61.10;;;;;;5130868;27;20102;-45
2022/06/28 12:33:39;;;;;;;3.17;1.20;;;24.50;59.30;;;;;;5114265;27;20030;-46
2022/06/28 12:36:05;;;;;;;3.53;1.85;;;24.10;56.30;;;;;;5123289;27;20062;-45
2022/06/28 12:38:31;;;;;;;9.75;2.00;;;23.70;56.80;;;;;;5125051;27;20042;-46
2022/06/28 12:40:56;;;;;;;6.07;1.45;;;23.00;58.90;;;;;;5125450;27;20113;-45
2022/06/28 12:43:23;;;;;;;9.15;2.00;;;22.60;61.70;;;;;;5126339;27;20023;-47
2022/06/28 12:45:51;;;;;;;5.75;1.73;;;22.20;64.60;;;;;;5129172;27;20066;-45
2022/06/28 12:48:17;;;;;;;7.97;1.70;;;21.80;63.00;;;;;;5131158;27;20019;-46
2022/06/28 12:50:42;;;;;;;4.03;1.48;;;21.60;66.10;;;;;;5141069;27;20071;-48
2022/06/28 12:53:08;;;;;;;5.85;1.70;;;21.60;68.50;;;;;;5122912;27;20027;-45
2022/06/28 12:55:34;;;;;;;5.28;1.85;;;22.10;69.60;;;;;;5120678;27;20428;-46
2022/06/28 12:58:00;;;;;;;4.72;2.08;;;22.20;69.10;;;;;;5106686;28;20508;-44